ADDS METAR Data INFO
IDs: Format: Raw Decoded Include TAF

Data at: 0359 UTC 11 Dec 2017

KTTN 110353Z AUTO 23005KT 10SM SCT100 02/M06 A3003 RMK AO2 SLP164 T00171061
KTTN 110253Z 23006KT 10SM BKN100 01/M06 A3002 RMK AO2 SLP162 T00111056 51004
KTTN 110153Z 23006KT 10SM FEW100 01/M06 A3002 RMK AO2 SLP162 T00111061
KTTN 110053Z 23006KT 10SM CLR 01/M06 A3002 RMK AO2 SLP162 T00111061
KTTN 102353Z 23006KT 10SM CLR 02/M06 A3001 RMK AO2 SLP158 T00171061 10039 20011 51012
KTTN 102253Z 22004KT 10SM SCT050 02/M06 A3000 RMK AO2 SLP154 T00171056
KTTN 102153Z 25004KT 10SM BKN049 02/M06 A2999 RMK AO2 SLP151 T00171056
KTTN 102053Z 26007KT 10SM FEW055 02/M06 A2997 RMK AO2 SLP146 T00221061 53009
KTTN 101953Z 26007G14KT 10SM OVC047 03/M06 A2997 RMK AO2 SLP144 T00281056
KTTN 101853Z 26010G16KT 10SM BKN039 03/M05 A2995 RMK AO2 SLP137 T00331050
KTTN 101753Z 27011KT 10SM SCT038 03/M04 A2995 RMK AO2 SLP137 T00331044 10033 21033 50000
KTTN 101653Z 25011G16KT 10SM CLR 03/M04 A2996 RMK AO2 SLP140 T00281044
KTTN 101553Z 27011KT 10SM CLR 02/M06 A2995 RMK AO2 SLP138 T00171056
KTTN 101453Z 27007KT 10SM CLR 01/M06 A2995 RMK AO2 SLP138 T00061056 51020
KTTN 101353Z 26008KT 10SM CLR M01/M06 A2994 RMK AO2 SLP136 T10111061
KTTN 101253Z 27007KT 9SM CLR M03/M07 A2992 RMK AO2 SLP126 T10281067
KTTN 101153Z 27005KT 8SM SCT090 SCT120 M03/M07 A2989 RMK AO2 SLP117 T10331067 11011 21033 53031
KTTN 101053Z 26005KT 7SM SCT110 M03/M06 A2985 RMK AO2 SLP105 T10281061
KTTN 100953Z AUTO 27006KT 7SM CLR M03/M06 A2982 RMK AO2 SLP094 T10281056
KTTN 100853Z AUTO 27006KT 7SM CLR M02/M05 A2980 RMK AO2 SLP086 T10221050 51012
KTTN 100753Z AUTO 28008KT 250V310 6SM BR CLR M02/M04 A2979 RMK AO2 SLP082 T10221044
KTTN 100653Z AUTO 27006KT 7SM OVC095 M01/M03 A2978 RMK AO2 SLP079 T10111033
KTTN 100553Z AUTO 28005KT 7SM BKN034 OVC100 M01/M02 A2976 RMK AO2 SLP074 60000 T10111022 11006 21011 53003
KTTN 100453Z AUTO 28005KT 8SM OVC044 M01/M02 A2976 RMK AO2 SNE20 SLP073 P0000 T10111022 400111017
KTTN 100353Z AUTO 30004KT 4SM -SN BR OVC046 M01/M02 A2975 RMK AO2 SLP069 P0000 T10111022
KTTN 100318Z AUTO 29004KT 3SM -SN BR OVC039 M01/M02 A2975 RMK AO2 P0000 T10111022
KTTN 100310Z AUTO 29004KT 2 1/2SM -SN BR OVC033 M01/M02 A2975 RMK AO2 P0000 T10111022
KTTN 100301Z AUTO 30005KT 2SM -SN BR OVC027 M01/M02 A2974 RMK AO2 P0000 T10111022
KTTN 100253Z 29004KT 1 3/4SM -SN BR OVC029 M01/M02 A2975 RMK AO2 SLP071 P0000 60000 T10111022 53003
KTTN 100248Z 30004KT 1 3/4SM -SN BR OVC031 M01/M02 A2975 RMK AO2 P0000
KTTN 100241Z 30005KT 2SM -SN BR OVC035 M01/M02 A2974 RMK AO2 P0000 T10111022
KTTN 100203Z 31003KT 4SM -SN BR OVC030 M01/M02 A2975 RMK AO2 P0000 T10111017
KTTN 100153Z 32004KT 3SM -SN BR OVC028 M01/M02 A2974 RMK AO2 SLP067 P0000 T10111022
KTTN 100151Z 31004KT 3SM -SN BR OVC026 M01/M02 A2974 RMK AO2 P0000
KTTN 100140Z 30004KT 2 1/2SM -SN BR OVC024 M01/M02 A2975 RMK AO2 P0000 T10111022
KTTN 100053Z 32004KT 1 1/4SM -SN BR OVC019 M01/M02 A2974 RMK AO2 SLP068 P0000 T10111022
KTTN 092353Z 34007KT 1 1/2SM -SN BR OVC020 M01/M02 A2973 RMK AO2 SLP064 P0000 60000 T10111022 11011 21017 56009
KTTN 092312Z 33006KT 1 3/4SM -SN BR OVC028 M01/M02 A2974 RMK AO2 P0000 T10111022
KTTN 092253Z 33007KT 2 1/2SM -SN BR OVC034 M01/M02 A2973 RMK AO2 SLP065 P0000 T10111022
KTTN 092241Z 34007KT 2SM -SN BR OVC030 M01/M02 A2973 RMK AO2 P0000 T10111022
KTTN 092153Z 33006KT 1SM -SN BR VV015 M01/M02 A2975 RMK AO2 SLP071 P0000 T10111022
KTTN 092141Z 34007KT 1 1/4SM -SN BR OVC019 M01/M02 A2974 RMK AO2 P0000 T10111022
KTTN 092116Z 34007KT 3/4SM -SN BR VV017 M01/M02 A2974 RMK AO2 P0000 T10111022
KTTN 092053Z 34006KT 1/2SM SN FZFG VV011 M02/M03 A2976 RMK AO2 SLP074 P0000 60000 T10171028 56006
KTTN 092030Z 35008KT 1/2SM SN FZFG VV013 M02/M03 A2975 RMK AO2 P0000 T10171028
KTTN 092003Z 34006KT 3/4SM -SN BR VV015 M01/M03 A2977 RMK AO2 P0000 T10111028
KTTN 091953Z 34005KT 1/2SM SN FZFG VV014 M01/M02 A2977 RMK AO2 SLP076 P0000 T10111022
KTTN 091950Z 34005KT 1/2SM SN FZFG VV014 M01/M02 A2976 RMK AO2 P0000
KTTN 091925Z 35006KT 3/4SM -SN BR OVC022 M01/M03 A2977 RMK AO2 P0000 T10111028
KTTN 091853Z 35007KT 1 1/4SM -SN BR FEW011 BKN025 OVC035 M01/M03 A2978 RMK AO2 SLP080 P0000 T10111028
KTTN 091828Z 01006KT 1SM -SN BR FEW006 SCT012 OVC020 M01/M03 A2978 RMK AO2 P0000 T10111028
KTTN 091821Z 01005KT 1SM -SN BR FEW010 BKN020 OVC036 M01/M03 A2979 RMK AO2 P0000 T10111028
KTTN 091753Z 36006KT 3/4SM -SN BR FEW005 OVC016 M01/M03 A2982 RMK AO2 SLP093 P0000 60000 T10111028 10006 21017 58028
KTTN 091716Z 36005KT 3/4SM -SN BR FEW006 OVC015 M01/M03 A2984 RMK AO2 P0000 T10111028
KTTN 091703Z 35006KT 3/4SM -SN BR FEW006 OVC013 M01/M03 A2984 RMK AO2 P0000 T10111028
KTTN 091653Z 35005KT 1/2SM SN FZFG VV012 M01/M03 A2985 RMK AO2 SLP104 P0000 T10111028